Time;durP1;ratioP1;P1;durP2;ratioP2;P2;SDS_P1;SDS_P2;PMS_P1;PMS_P2;Temp;Humidity;BMP_temperature;BMP_pressure;BME280_temperature;BME280_humidity;BME280_pressure;Samples;Min_cycle;Max_cycle;Signal;HPM_P1;HPM_P2
2021/01/02 00:02:06;;;;;;;2.73;2.46;;;;;;;18.53;47.82;99964.32;;;;-53
2021/01/02 00:05:06;;;;;;;2.53;2.33;;;;;;;18.52;47.86;99961.95;;;;-53
2021/01/02 00:08:07;;;;;;;2.61;2.41;;;;;;;18.50;47.82;99964.71;;;;-53
2021/01/02 00:11:06;;;;;;;2.61;2.41;;;;;;;18.48;47.86;99964.05;;;;-53
2021/01/02 00:14:06;;;;;;;2.50;2.30;;;;;;;18.46;47.87;99964.03;;;;-53
2021/01/02 00:17:06;;;;;;;2.51;2.31;;;;;;;18.44;47.82;99964.69;;;;-53
2021/01/02 00:21:06;;;;;;;2.47;2.27;;;;;;;18.43;47.85;99960.97;;;;-52
2021/01/02 00:24:06;;;;;;;3.64;2.37;;;;;;;18.42;47.92;99960.55;;;;-53
2021/01/02 00:27:06;;;;;;;2.56;2.36;;;;;;;18.39;47.88;99961.84;;;;-52
2021/01/02 00:30:06;;;;;;;2.63;2.43;;;;;;;18.37;47.94;99960.05;;;;-52
2021/01/02 00:33:06;;;;;;;2.65;2.39;;;;;;;18.36;47.98;99961.58;;;;-53
2021/01/02 00:36:06;;;;;;;2.47;2.27;;;;;;;18.36;47.90;99962.39;;;;-52
2021/01/02 00:39:06;;;;;;;2.69;2.41;;;;;;;18.34;47.91;99963.77;;;;-53
2021/01/02 00:42:06;;;;;;;2.39;2.19;;;;;;;18.32;47.94;99965.56;;;;-52
2021/01/02 00:45:06;;;;;;;2.47;2.27;;;;;;;18.30;47.97;99970.31;;;;-52
2021/01/02 00:48:06;;;;;;;2.52;2.32;;;;;;;18.29;47.90;99970.16;;;;-53
2021/01/02 00:51:06;;;;;;;2.78;2.45;;;;;;;18.27;47.96;99972.10;;;;-52
2021/01/02 00:54:06;;;;;;;2.80;2.41;;;;;;;18.27;47.97;99975.75;;;;-52
2021/01/02 00:57:06;;;;;;;2.53;2.33;;;;;;;18.26;47.96;99974.28;;;;-53
2021/01/02 01:00:06;;;;;;;2.53;2.33;;;;;;;18.24;47.94;99974.11;;;;-53
2021/01/02 01:03:06;;;;;;;2.60;2.38;;;;;;;18.22;47.92;99973.64;;;;-52
2021/01/02 01:06:06;;;;;;;2.58;2.38;;;;;;;18.21;48.02;99978.48;;;;-53
2021/01/02 01:09:06;;;;;;;2.53;2.33;;;;;;;18.19;47.97;99972.72;;;;-53
2021/01/02 01:12:06;;;;;;;2.65;2.45;;;;;;;18.17;48.01;99974.08;;;;-53
2021/01/02 01:15:06;;;;;;;2.83;2.56;;;;;;;18.16;48.05;99975.80;;;;-53
2021/01/02 01:18:06;;;;;;;2.71;2.51;;;;;;;18.15;47.99;99977.09;;;;-53
2021/01/02 01:21:06;;;;;;;2.97;2.63;;;;;;;18.14;48.00;99978.63;;;;-52
2021/01/02 01:24:06;;;;;;;2.63;2.42;;;;;;;18.13;48.00;99982.43;;;;-53
2021/01/02 01:27:06;;;;;;;2.85;2.36;;;;;;;18.11;48.02;99985.82;;;;-53
2021/01/02 01:30:06;;;;;;;2.78;2.53;;;;;;;18.10;48.12;99987.63;;;;-52
2021/01/02 01:33:08;;;;;;;2.49;2.29;;;;;;;18.08;48.13;99986.95;;;;-52
2021/01/02 01:36:06;;;;;;;2.75;2.55;;;;;;;18.07;48.08;99987.83;;;;-53
2021/01/02 01:39:06;;;;;;;2.79;2.48;;;;;;;18.06;48.07;99989.53;;;;-52
2021/01/02 01:42:06;;;;;;;2.55;2.35;;;;;;;18.05;48.10;99987.09;;;;-52
2021/01/02 01:45:06;;;;;;;2.83;2.61;;;;;;;18.03;48.05;99987.16;;;;-52
2021/01/02 01:48:06;;;;;;;3.01;2.73;;;;;;;18.01;48.02;99990.50;;;;-52
2021/01/02 01:51:06;;;;;;;2.67;2.47;;;;;;;18.01;48.07;99995.17;;;;-53
2021/01/02 01:54:06;;;;;;;2.62;2.42;;;;;;;18.00;48.10;99993.00;;;;-52
2021/01/02 01:57:06;;;;;;;2.78;2.51;;;;;;;17.98;48.12;99994.53;;;;-52
2021/01/02 02:00:08;;;;;;;2.65;2.45;;;;;;;17.96;48.07;99999.46;;;;-52
2021/01/02 02:03:06;;;;;;;2.70;2.50;;;;;;;17.96;48.10;100000.27;;;;-53
2021/01/02 02:06:06;;;;;;;2.96;2.65;;;;;;;17.94;48.14;99996.36;;;;-53
2021/01/02 02:09:06;;;;;;;2.85;2.54;;;;;;;17.94;48.14;99998.40;;;;-53
2021/01/02 02:12:06;;;;;;;2.57;2.37;;;;;;;17.92;48.15;99999.03;;;;-52
2021/01/02 02:15:06;;;;;;;2.50;2.30;;;;;;;17.91;48.17;99999.45;;;;-52
2021/01/02 02:18:06;;;;;;;2.61;2.41;;;;;;;17.90;48.13;100001.69;;;;-52
2021/01/02 02:21:06;;;;;;;2.67;2.47;;;;;;;17.89;48.23;100001.22;;;;-52
2021/01/02 02:24:06;;;;;;;2.61;2.41;;;;;;;17.88;48.21;99999.81;;;;-52
2021/01/02 02:27:06;;;;;;;2.61;2.41;;;;;;;17.87;48.19;100001.77;;;;-52
2021/01/02 02:30:06;;;;;;;2.51;2.31;;;;;;;17.86;48.19;100002.39;;;;-52
2021/01/02 02:33:06;;;;;;;2.76;2.54;;;;;;;17.84;48.15;100002.14;;;;-53
2021/01/02 02:36:06;;;;;;;2.62;2.42;;;;;;;17.83;48.03;100000.61;;;;-52
2021/01/02 02:39:06;;;;;;;2.58;2.38;;;;;;;17.83;48.09;100002.80;;;;-52
2021/01/02 02:42:06;;;;;;;2.98;2.50;;;;;;;17.82;48.13;100003.31;;;;-53
2021/01/02 02:45:06;;;;;;;3.01;2.71;;;;;;;17.82;48.13;99996.75;;;;-52
2021/01/02 02:48:06;;;;;;;2.86;2.51;;;;;;;17.81;48.17;99994.49;;;;-53
2021/01/02 02:51:06;;;;;;;2.68;2.48;;;;;;;17.80;48.14;99996.98;;;;-52
2021/01/02 02:54:06;;;;;;;2.92;2.61;;;;;;;17.78;48.14;100000.53;;;;-52
2021/01/02 02:57:06;;;;;;;2.84;2.62;;;;;;;17.77;48.19;99999.81;;;;-53
2021/01/02 03:00:06;;;;;;;2.77;2.54;;;;;;;17.77;48.19;100003.14;;;;-52
2021/01/02 03:03:06;;;;;;;2.64;2.44;;;;;;;17.75;48.14;100006.36;;;;-53
2021/01/02 03:06:06;;;;;;;2.66;2.46;;;;;;;17.75;48.18;100004.58;;;;-52
2021/01/02 03:09:06;;;;;;;2.73;2.53;;;;;;;17.73;48.19;100004.81;;;;-52
2021/01/02 03:12:06;;;;;;;2.82;2.60;;;;;;;17.73;48.24;100003.44;;;;-52
2021/01/02 03:15:06;;;;;;;2.74;2.52;;;;;;;17.71;48.13;100002.69;;;;-53
2021/01/02 03:18:06;;;;;;;2.82;2.58;;;;;;;17.71;48.24;100004.39;;;;-52
2021/01/02 03:21:06;;;;;;;2.89;2.67;;;;;;;17.70;48.24;100010.16;;;;-52
2021/01/02 03:24:06;;;;;;;2.78;2.58;;;;;;;17.69;48.23;100010.45;;;;-52
2021/01/02 03:27:06;;;;;;;2.91;2.63;;;;;;;17.69;48.23;100011.76;;;;-53
2021/01/02 03:30:06;;;;;;;2.77;2.54;;;;;;;17.67;48.28;100008.41;;;;-53
2021/01/02 03:33:06;;;;;;;2.69;2.49;;;;;;;17.66;48.26;100013.77;;;;-52
2021/01/02 03:36:06;;;;;;;3.03;2.73;;;;;;;17.65;48.19;100017.31;;;;-52
2021/01/02 03:39:06;;;;;;;2.71;2.51;;;;;;;17.65;48.25;100019.99;;;;-53
2021/01/02 03:42:06;;;;;;;3.00;2.70;;;;;;;17.64;48.29;100022.75;;;;-52
2021/01/02 03:45:06;;;;;;;3.05;2.75;;;;;;;17.63;48.32;100021.44;;;;-52
2021/01/02 03:48:06;;;;;;;2.89;2.61;;;;;;;17.62;48.21;100019.74;;;;-52
2021/01/02 03:51:06;;;;;;;2.77;2.55;;;;;;;17.61;48.30;100023.53;;;;-52
2021/01/02 03:54:06;;;;;;;3.02;2.72;;;;;;;17.60;48.26;100023.13;;;;-52
2021/01/02 03:57:06;;;;;;;2.86;2.61;;;;;;;17.60;48.26;100017.45;;;;-53
2021/01/02 04:00:06;;;;;;;2.74;2.53;;;;;;;17.59;48.24;100015.16;;;;-52
2021/01/02 04:03:06;;;;;;;2.78;2.57;;;;;;;17.58;48.27;100012.66;;;;-52
2021/01/02 04:06:06;;;;;;;2.80;2.60;;;;;;;17.57;48.20;100010.69;;;;-52
2021/01/02 04:09:06;;;;;;;2.95;2.65;;;;;;;17.56;48.27;100008.75;;;;-53
2021/01/02 04:12:06;;;;;;;2.85;2.65;;;;;;;17.56;48.26;100008.44;;;;-52
2021/01/02 04:15:06;;;;;;;3.04;2.76;;;;;;;17.55;48.29;100013.52;;;;-52
2021/01/02 04:18:06;;;;;;;4.49;2.80;;;;;;;17.53;48.27;100005.56;;;;-52
2021/01/02 04:21:06;;;;;;;2.99;2.69;;;;;;;17.54;48.21;100011.91;;;;-52
2021/01/02 04:24:06;;;;;;;2.90;2.64;;;;;;;17.53;48.30;100005.08;;;;-52
2021/01/02 04:27:07;;;;;;;3.07;2.77;;;;;;;17.52;48.31;100011.23;;;;-52
2021/01/02 04:30:06;;;;;;;3.11;2.81;;;;;;;17.51;48.31;100008.78;;;;-52
2021/01/02 04:33:06;;;;;;;3.01;2.71;;;;;;;17.50;48.22;100006.77;;;;-52
2021/01/02 04:36:06;;;;;;;2.89;2.67;;;;;;;17.49;48.24;100002.72;;;;-52
2021/01/02 04:39:06;;;;;;;2.87;2.64;;;;;;;17.47;48.24;99998.25;;;;-52
2021/01/02 04:42:06;;;;;;;3.06;2.76;;;;;;;17.47;48.32;99999.31;;;;-52
2021/01/02 04:45:06;;;;;;;2.69;2.42;;;;;;;17.47;48.30;99998.95;;;;-52
2021/01/02 04:48:06;;;;;;;3.06;2.76;;;;;;;17.45;48.26;99998.48;;;;-52
2021/01/02 04:51:06;;;;;;;2.91;2.70;;;;;;;17.44;48.30;99995.30;;;;-52
2021/01/02 04:54:06;;;;;;;3.03;2.73;;;;;;;17.44;48.26;99992.23;;;;-52
2021/01/02 04:57:06;;;;;;;2.82;2.58;;;;;;;17.43;48.19;99995.14;;;;-50
2021/01/02 05:00:06;;;;;;;3.11;2.81;;;;;;;17.42;48.22;99996.34;;;;-50
2021/01/02 05:03:06;;;;;;;3.31;2.70;;;;;;;17.42;48.30;99995.05;;;;-50
2021/01/02 05:06:06;;;;;;;2.96;2.73;;;;;;;17.41;48.22;99995.53;;;;-50
2021/01/02 05:09:06;;;;;;;3.03;2.73;;;;;;;17.41;48.32;99993.89;;;;-50
2021/01/02 05:12:06;;;;;;;3.02;2.74;;;;;;;17.39;48.24;99996.38;;;;-50
2021/01/02 05:15:07;;;;;;;2.91;2.70;;;;;;;17.38;48.24;99999.05;;;;-50
2021/01/02 05:18:06;;;;;;;2.70;2.47;;;;;;;17.37;48.21;99996.55;;;;-50
2021/01/02 05:21:06;;;;;;;2.84;2.63;;;;;;;17.36;48.25;99998.88;;;;-50
2021/01/02 05:24:06;;;;;;;3.06;2.76;;;;;;;17.35;48.37;99996.22;;;;-50
2021/01/02 05:27:06;;;;;;;2.72;2.51;;;;;;;17.34;48.40;99997.57;;;;-50
2021/01/02 05:30:06;;;;;;;2.79;2.59;;;;;;;17.34;48.32;99999.44;;;;-50
2021/01/02 05:33:07;;;;;;;3.32;3.02;;;;;;;17.33;48.32;100002.92;;;;-50
2021/01/02 05:36:06;;;;;;;3.11;2.81;;;;;;;17.33;48.23;100006.37;;;;-50
2021/01/02 05:39:06;;;;;;;2.97;2.71;;;;;;;17.31;48.28;100008.90;;;;-50
2021/01/02 05:42:06;;;;;;;3.21;2.91;;;;;;;17.31;48.35;100012.63;;;;-50
2021/01/02 05:45:06;;;;;;;2.91;2.67;;;;;;;17.30;48.29;100017.94;;;;-50
2021/01/02 05:48:06;;;;;;;2.77;2.57;;;;;;;17.29;48.31;100016.33;;;;-50
2021/01/02 05:51:06;;;;;;;2.89;2.69;;;;;;;17.29;48.30;100019.09;;;;-50
2021/01/02 05:54:06;;;;;;;2.97;2.71;;;;;;;17.27;48.33;100023.52;;;;-50
2021/01/02 05:57:06;;;;;;;3.03;2.73;;;;;;;17.27;48.38;100027.16;;;;-50
2021/01/02 06:00:08;;;;;;;2.89;2.69;;;;;;;17.27;48.29;100028.47;;;;-50
2021/01/02 06:03:06;;;;;;;2.86;2.63;;;;;;;17.26;48.29;100039.53;;;;-50
2021/01/02 06:06:06;;;;;;;2.74;2.52;;;;;;;17.26;48.29;100040.59;;;;-50
2021/01/02 06:09:06;;;;;;;2.97;2.71;;;;;;;17.26;48.32;100043.34;;;;-50
2021/01/02 06:12:06;;;;;;;2.67;2.47;;;;;;;17.25;48.23;100048.44;;;;-53
2021/01/02 06:15:06;;;;;;;2.69;2.49;;;;;;;17.25;48.29;100045.05;;;;-52
2021/01/02 06:18:06;;;;;;;2.92;2.62;;;;;;;17.26;48.27;100050.14;;;;-52
2021/01/02 06:21:06;;;;;;;2.81;2.61;;;;;;;17.26;48.27;100049.98;;;;-52
2021/01/02 06:24:06;;;;;;;3.18;2.88;;;;;;;17.27;48.37;100049.27;;;;-52
2021/01/02 06:27:06;;;;;;;2.77;2.57;;;;;;;17.28;48.38;100053.31;;;;-52
2021/01/02 06:30:06;;;;;;;2.95;2.65;;;;;;;17.29;48.36;100052.61;;;;-52
2021/01/02 06:33:06;;;;;;;2.95;2.67;;;;;;;17.31;48.28;100052.95;;;;-52
2021/01/02 06:36:06;;;;;;;3.02;2.72;;;;;;;17.33;48.29;100051.03;;;;-53
2021/01/02 06:39:06;;;;;;;3.08;2.71;;;;;;;17.35;48.27;100054.20;;;;-52
2021/01/02 06:42:06;;;;;;;2.83;2.60;;;;;;;17.37;48.43;100057.63;;;;-52
2021/01/02 06:45:06;;;;;;;3.97;2.91;;;;;;;17.40;48.49;100055.85;;;;-52
2021/01/02 06:48:06;;;;;;;2.75;2.55;;;;;;;17.44;48.50;100055.48;;;;-52
2021/01/02 06:51:06;;;;;;;2.75;2.55;;;;;;;17.48;48.48;100050.17;;;;-52
2021/01/02 06:54:06;;;;;;;2.64;2.44;;;;;;;17.52;48.39;100050.94;;;;-58
2021/01/02 06:57:06;;;;;;;2.70;2.50;;;;;;;17.55;48.48;100050.22;;;;-58
2021/01/02 07:00:06;;;;;;;2.69;2.49;;;;;;;17.60;48.46;100055.21;;;;-58
2021/01/02 07:03:06;;;;;;;2.98;2.71;;;;;;;17.64;48.55;100055.33;;;;-58
2021/01/02 07:06:06;;;;;;;2.48;2.28;;;;;;;17.69;48.58;100057.05;;;;-58
2021/01/02 07:09:09;;;;;;;2.69;2.49;;;;;;;17.74;48.66;100057.02;;;;-58
2021/01/02 07:12:06;;;;;;;2.40;2.20;;;;;;;17.77;48.63;100058.08;;;;-58
2021/01/02 07:15:06;;;;;;;2.57;2.37;;;;;;;17.82;48.59;100054.55;;;;-58
2021/01/02 07:18:06;;;;;;;2.66;2.46;;;;;;;17.87;48.64;100051.78;;;;-59
2021/01/02 07:21:06;;;;;;;2.61;2.41;;;;;;;17.90;48.77;100050.74;;;;-58
2021/01/02 07:24:06;;;;;;;2.69;2.49;;;;;;;17.92;48.77;100047.59;;;;-58
2021/01/02 07:27:06;;;;;;;2.69;2.49;;;;;;;17.95;48.71;100043.97;;;;-58
2021/01/02 07:30:06;;;;;;;2.57;2.37;;;;;;;18.00;48.71;100045.20;;;;-52
2021/01/02 07:33:06;;;;;;;2.51;2.31;;;;;;;18.04;48.69;100046.70;;;;-52
2021/01/02 07:36:06;;;;;;;2.61;2.41;;;;;;;18.07;48.67;100045.56;;;;-52
2021/01/02 07:39:06;;;;;;;2.65;2.35;;;;;;;18.11;48.71;100039.34;;;;-50
2021/01/02 07:42:06;;;;;;;2.53;2.33;;;;;;;18.14;48.72;100046.42;;;;-50
2021/01/02 07:45:08;;;;;;;2.57;2.37;;;;;;;18.17;48.69;100049.99;;;;-50
2021/01/02 07:48:06;;;;;;;2.69;2.49;;;;;;;18.20;48.69;100042.32;;;;-53
2021/01/02 07:51:06;;;;;;;2.42;2.22;;;;;;;18.24;48.69;100047.05;;;;-53
2021/01/02 07:54:06;;;;;;;2.45;2.25;;;;;;;18.26;48.68;100046.73;;;;-53
2021/01/02 07:57:06;;;;;;;2.57;2.37;;;;;;;18.31;48.70;100051.94;;;;-59
2021/01/02 08:00:06;;;;;;;2.50;2.30;;;;;;;18.34;48.72;100056.08;;;;-59
2021/01/02 08:03:06;;;;;;;2.49;2.29;;;;;;;18.37;48.59;100057.31;;;;-50
2021/01/02 08:37:40;;;;;;;12.46;11.57;;;;;;;18.78;47.89;100078.23;;;;-53
2021/01/02 08:40:40;;;;;;;9.09;8.39;;;;;;;18.80;47.88;100080.70;;;;-59
2021/01/02 08:43:40;;;;;;;18.21;16.87;;;;;;;18.82;47.77;100081.59;;;;-59
2021/01/02 08:46:40;;;;;;;34.71;32.19;;;;;;;18.84;47.81;100089.08;;;;-59
2021/01/02 08:49:43;;;;;;;31.37;29.09;;;;;;;18.83;47.87;100095.58;;;;-50
2021/01/02 08:52:41;;;;;;;56.44;52.29;;;;;;;18.83;47.92;100100.45;;;;-52
2021/01/02 08:55:40;;;;;;;54.11;50.18;;;;;;;18.82;47.87;100097.92;;;;-52
2021/01/02 08:58:40;;;;;;;20.43;18.89;;;;;;;18.82;47.93;100096.97;;;;-52
2021/01/02 09:01:40;;;;;;;16.41;15.17;;;;;;;18.84;47.88;100096.22;;;;-59
2021/01/02 09:04:40;;;;;;;17.08;15.82;;;;;;;18.85;47.77;100096.64;;;;-50
2021/01/02 09:07:40;;;;;;;18.26;16.88;;;;;;;18.84;47.88;100093.63;;;;-53
2021/01/02 09:10:42;;;;;;;42.27;39.20;;;;;;;18.80;47.64;100096.77;;;;-53
2021/01/02 09:13:40;;;;;;;42.53;39.32;;;;;;;18.81;47.73;100096.06;;;;-55
2021/01/02 09:16:40;;;;;;;26.82;24.39;;;;;;;18.77;47.14;100093.74;;;;-59
2021/01/02 09:19:40;;;;;;;23.30;21.33;;;;;;;18.76;46.50;100096.59;;;;-52
2021/01/02 09:22:40;;;;;;;18.95;17.06;;;;;;;18.76;46.42;100095.20;;;;-51
2021/01/02 09:25:41;;;;;;;15.13;13.80;;;;;;;18.82;46.94;100094.34;;;;-48
2021/01/02 09:28:40;;;;;;;14.88;13.52;;;;;;;18.82;46.75;100100.59;;;;-51
2021/01/02 09:31:40;;;;;;;13.33;11.65;;;;;;;18.80;46.67;100095.17;;;;-52
2021/01/02 09:34:46;;;;;;;13.06;11.94;;;;;;;18.77;46.18;100093.66;;;;-50
2021/01/02 09:37:40;;;;;;;11.33;10.21;;;;;;;18.76;46.06;100090.50;;;;-50
2021/01/02 09:40:40;;;;;;;16.51;12.53;;;;;;;18.76;46.21;100094.08;;;;-47
2021/01/02 09:43:41;;;;;;;13.53;12.29;;;;;;;18.75;46.07;100085.77;;;;-47
2021/01/02 09:46:40;;;;;;;14.52;13.18;;;;;;;18.76;46.15;100082.23;;;;-51
2021/01/02 09:49:40;;;;;;;12.11;10.98;;;;;;;18.79;46.40;100086.96;;;;-50
2021/01/02 09:52:40;;;;;;;11.32;10.33;;;;;;;18.83;46.64;100086.33;;;;-51
2021/01/02 09:55:40;;;;;;;13.14;12.00;;;;;;;18.84;46.70;100081.06;;;;-51
2021/01/02 09:58:40;;;;;;;11.05;9.50;;;;;;;18.90;47.18;100082.68;;;;-52
2021/01/02 10:01:40;;;;;;;12.27;9.81;;;;;;;18.96;47.44;100078.31;;;;-51
2021/01/02 10:04:40;;;;;;;11.16;10.22;;;;;;;19.02;47.50;100078.57;;;;-57
2021/01/02 10:07:40;;;;;;;11.61;9.70;;;;;;;19.05;47.64;100072.31;;;;-50
2021/01/02 10:10:40;;;;;;;11.00;10.10;;;;;;;19.08;47.69;100073.23;;;;-49
2021/01/02 10:13:40;;;;;;;10.74;9.69;;;;;;;19.09;47.88;100069.18;;;;-49
2021/01/02 10:16:40;;;;;;;11.27;9.33;;;;;;;19.12;47.89;100073.23;;;;-49
2021/01/02 10:19:40;;;;;;;10.34;9.40;;;;;;;19.14;47.74;100071.30;;;;-63
2021/01/02 10:22:40;;;;;;;11.49;10.32;;;;;;;19.15;47.79;100073.91;;;;-49
2021/01/02 10:25:40;;;;;;;11.07;10.10;;;;;;;19.17;47.83;100076.50;;;;-47
2021/01/02 10:28:40;;;;;;;9.70;8.84;;;;;;;19.19;47.76;100074.78;;;;-50
2021/01/02 10:31:40;;;;;;;9.55;8.68;;;;;;;19.22;47.69;100075.70;;;;-46
2021/01/02 10:34:40;;;;;;;12.85;9.57;;;;;;;19.25;48.13;100080.31;;;;-45
2021/01/02 10:37:40;;;;;;;11.23;10.27;;;;;;;19.26;47.60;100080.98;;;;-50
2021/01/02 10:40:40;;;;;;;10.83;9.83;;;;;;;19.27;47.47;100074.22;;;;-51
2021/01/02 10:43:40;;;;;;;12.51;8.71;;;;;;;19.27;47.39;100069.26;;;;-50
2021/01/02 10:46:40;;;;;;;9.75;8.91;;;;;;;19.33;47.58;100068.95;;;;-53
2021/01/02 10:49:40;;;;;;;10.04;9.21;;;;;;;19.34;47.67;100064.39;;;;-48
2021/01/02 10:52:40;;;;;;;9.88;8.89;;;;;;;19.34;47.73;100063.36;;;;-50
2021/01/02 10:55:40;;;;;;;8.31;7.43;;;;;;;19.35;47.65;100057.09;;;;-52
2021/01/02 10:58:40;;;;;;;10.35;9.49;;;;;;;19.35;47.57;100053.92;;;;-51
2021/01/02 11:01:40;;;;;;;8.50;7.76;;;;;;;19.35;47.75;100047.17;;;;-55
2021/01/02 11:04:40;;;;;;;10.36;9.55;;;;;;;19.38;47.83;100049.68;;;;-51
2021/01/02 11:07:40;;;;;;;8.93;8.05;;;;;;;19.41;47.76;100048.56;;;;-52
2021/01/02 11:10:40;;;;;;;15.83;12.11;;;;;;;19.42;48.01;100040.91;;;;-52
2021/01/02 11:13:40;;;;;;;9.25;8.45;;;;;;;19.44;47.80;100037.49;;;;-57
2021/01/02 11:16:41;;;;;;;9.17;8.39;;;;;;;19.45;47.87;100034.66;;;;-52
2021/01/02 11:19:40;;;;;;;8.52;7.84;;;;;;;19.46;47.72;100032.30;;;;-58
2021/01/02 11:22:40;;;;;;;8.82;8.11;;;;;;;19.48;47.55;100034.00;;;;-64
2021/01/02 11:25:40;;;;;;;10.43;8.86;;;;;;;19.51;47.55;100026.70;;;;-59
2021/01/02 11:28:40;;;;;;;8.93;8.05;;;;;;;19.51;47.30;100026.19;;;;-57
2021/01/02 11:31:40;;;;;;;10.05;9.04;;;;;;;19.50;47.37;100020.75;;;;-56
2021/01/02 11:34:40;;;;;;;11.13;7.93;;;;;;;19.52;47.45;100018.64;;;;-51
2021/01/02 11:37:40;;;;;;;9.23;8.40;;;;;;;19.52;47.45;100017.98;;;;-56
2021/01/02 11:40:40;;;;;;;9.26;8.31;;;;;;;19.42;45.43;100013.71;;;;-59
2021/01/02 11:43:40;;;;;;;10.38;9.16;;;;;;;19.42;46.22;100014.34;;;;-58
2021/01/02 11:46:40;;;;;;;8.36;7.53;;;;;;;19.44;46.54;100012.09;;;;-51
2021/01/02 11:49:40;;;;;;;7.49;6.76;;;;;;;19.49;46.84;100009.23;;;;-51
2021/01/02 11:52:40;;;;;;;8.45;7.19;;;;;;;19.53;46.79;100002.89;;;;-53
2021/01/02 11:55:40;;;;;;;8.99;8.14;;;;;;;19.53;46.90;100003.44;;;;-48
2021/01/02 11:58:40;;;;;;;8.07;7.35;;;;;;;19.54;47.04;99996.53;;;;-52
2021/01/02 12:01:40;;;;;;;10.27;8.79;;;;;;;19.56;47.09;99991.48;;;;-52
2021/01/02 12:04:40;;;;;;;8.25;7.47;;;;;;;19.57;47.19;99983.45;;;;-60
2021/01/02 12:07:40;;;;;;;7.03;6.18;;;;;;;19.59;47.16;99981.27;;;;-57
2021/01/02 12:10:40;;;;;;;9.08;8.35;;;;;;;19.61;47.17;99981.08;;;;-56
2021/01/02 12:13:40;;;;;;;7.70;6.99;;;;;;;19.61;46.93;99982.38;;;;-51
2021/01/02 12:16:40;;;;;;;8.71;7.83;;;;;;;19.58;46.86;99977.67;;;;-51
2021/01/02 12:19:42;;;;;;;8.78;8.01;;;;;;;19.57;46.79;99978.25;;;;-50
2021/01/02 12:22:42;;;;;;;9.23;8.43;;;;;;;19.56;46.72;99975.08;;;;-50
2021/01/02 12:25:40;;;;;;;8.61;7.53;;;;;;;19.51;46.07;99973.30;;;;-59
2021/01/02 12:28:40;;;;;;;7.21;6.61;;;;;;;19.45;45.50;99973.39;;;;-58
2021/01/02 12:31:40;;;;;;;9.55;8.07;;;;;;;19.39;45.28;99976.56;;;;-58
2021/01/02 12:34:40;;;;;;;7.79;7.04;;;;;;;19.37;45.29;99978.36;;;;-58
2021/01/02 12:37:40;;;;;;;6.88;6.25;;;;;;;19.38;45.37;99974.14;;;;-51
2021/01/02 12:40:40;;;;;;;10.63;7.03;;;;;;;19.39;45.64;99967.62;;;;-48
2021/01/02 12:43:40;;;;;;;7.55;6.79;;;;;;;19.40;45.83;99965.42;;;;-48
2021/01/02 12:46:40;;;;;;;6.73;6.04;;;;;;;19.41;45.89;99963.81;;;;-49
2021/01/02 12:49:40;;;;;;;8.25;7.14;;;;;;;19.42;45.95;99961.44;;;;-58
2021/01/02 12:52:40;;;;;;;8.28;7.63;;;;;;;19.42;46.07;99965.45;;;;-58
2021/01/02 12:55:40;;;;;;;8.72;7.91;;;;;;;19.43;46.08;99961.54;;;;-58
2021/01/02 12:58:40;;;;;;;7.66;7.06;;;;;;;19.45;46.09;99958.86;;;;-48
2021/01/02 13:01:40;;;;;;;8.19;7.46;;;;;;;19.45;46.26;99956.00;;;;-48
2021/01/02 13:04:40;;;;;;;8.07;6.86;;;;;;;19.46;46.25;99952.17;;;;-48
2021/01/02 13:07:40;;;;;;;6.73;6.11;;;;;;;19.47;46.23;99951.05;;;;-48
2021/01/02 13:10:40;;;;;;;6.51;5.93;;;;;;;19.49;46.14;99950.48;;;;-48
2021/01/02 13:13:40;;;;;;;7.66;7.05;;;;;;;19.49;46.22;99955.59;;;;-48
2021/01/02 13:16:40;;;;;;;7.56;6.83;;;;;;;19.49;46.25;99957.45;;;;-52
2021/01/02 13:19:40;;;;;;;6.40;5.75;;;;;;;19.49;46.32;99954.29;;;;-53
2021/01/02 13:22:40;;;;;;;6.99;6.49;;;;;;;19.50;46.25;99959.64;;;;-51
2021/01/02 13:25:40;;;;;;;7.57;6.99;;;;;;;19.49;46.32;99957.55;;;;-51
2021/01/02 13:28:40;;;;;;;6.41;5.91;;;;;;;19.49;46.29;99958.84;;;;-51
2021/01/02 13:31:40;;;;;;;6.21;5.71;;;;;;;19.50;46.32;99962.25;;;;-51
2021/01/02 13:34:40;;;;;;;6.79;6.28;;;;;;;19.49;46.30;99958.11;;;;-51
2021/01/02 13:37:40;;;;;;;6.47;5.89;;;;;;;19.49;46.24;99959.48;;;;-51
2021/01/02 13:40:40;;;;;;;6.59;6.05;;;;;;;19.50;46.39;99959.97;;;;-51
2021/01/02 13:43:40;;;;;;;6.79;6.29;;;;;;;19.51;46.32;99959.23;;;;-58
2021/01/02 13:46:40;;;;;;;8.12;7.52;;;;;;;19.51;46.28;99963.13;;;;-59
2021/01/02 13:49:40;;;;;;;7.95;7.33;;;;;;;19.51;46.35;99955.59;;;;-59
2021/01/02 13:52:40;;;;;;;7.75;7.03;;;;;;;19.51;46.33;99952.02;;;;-59
2021/01/02 13:55:40;;;;;;;6.95;6.45;;;;;;;19.51;46.47;99949.42;;;;-59
2021/01/02 13:58:40;;;;;;;7.82;7.19;;;;;;;19.52;46.44;99952.25;;;;-51
2021/01/02 14:01:41;;;;;;;8.13;7.49;;;;;;;19.52;46.47;99950.20;;;;-51
2021/01/02 14:04:41;;;;;;;6.01;5.51;;;;;;;19.53;46.43;99947.13;;;;-51
2021/01/02 14:07:40;;;;;;;7.52;6.94;;;;;;;19.53;46.44;99944.12;;;;-50
2021/01/02 14:10:40;;;;;;;7.37;6.84;;;;;;;19.54;46.44;99940.13;;;;-51
2021/01/02 14:13:40;;;;;;;7.82;7.21;;;;;;;19.55;46.44;99935.83;;;;-53
2021/01/02 14:16:40;;;;;;;6.99;6.47;;;;;;;19.55;45.95;99942.66;;;;-57
2021/01/02 14:19:40;;;;;;;8.05;7.37;;;;;;;19.57;45.72;99946.70;;;;-51
2021/01/02 14:22:41;;;;;;;8.00;7.07;;;;;;;19.56;45.85;99946.95;;;;-50
2021/01/02 14:25:40;;;;;;;6.75;6.25;;;;;;;19.58;45.89;99943.86;;;;-51
2021/01/02 14:28:40;;;;;;;7.00;5.80;;;;;;;19.58;46.02;99945.58;;;;-50
2021/01/02 14:31:40;;;;;;;7.63;6.65;;;;;;;19.57;45.79;99941.92;;;;-56
2021/01/02 14:34:40;;;;;;;6.55;6.03;;;;;;;19.58;45.54;99934.11;;;;-52
2021/01/02 14:37:40;;;;;;;7.75;7.01;;;;;;;19.58;45.50;99933.63;;;;-54
2021/01/02 14:40:40;;;;;;;7.85;7.22;;;;;;;19.59;45.33;99943.61;;;;-53
2021/01/02 14:43:40;;;;;;;7.34;6.70;;;;;;;19.63;45.67;99949.61;;;;-51
2021/01/02 14:46:40;;;;;;;7.89;7.25;;;;;;;19.65;45.87;99947.25;;;;-57
2021/01/02 14:49:43;;;;;;;6.09;5.57;;;;;;;19.67;46.00;99952.53;;;;-53
2021/01/02 14:52:40;;;;;;;8.27;7.53;;;;;;;19.70;46.13;99957.09;;;;-55
2021/01/02 14:55:40;;;;;;;6.72;5.78;;;;;;;19.72;46.21;99957.84;;;;-52
2021/01/02 14:58:40;;;;;;;7.24;6.29;;;;;;;19.72;46.07;99960.54;;;;-53
2021/01/02 15:01:41;;;;;;;7.01;6.41;;;;;;;19.71;46.01;99959.70;;;;-58
2021/01/02 15:04:40;;;;;;;7.53;6.89;;;;;;;19.71;45.91;99956.14;;;;-59
2021/01/02 15:07:40;;;;;;;9.09;6.87;;;;;;;19.72;45.93;99956.47;;;;-57
2021/01/02 15:10:40;;;;;;;6.99;6.17;;;;;;;19.72;45.98;99958.50;;;;-58
2021/01/02 15:13:40;;;;;;;6.37;5.73;;;;;;;19.72;46.01;99960.12;;;;-54
2021/01/02 15:16:40;;;;;;;7.13;6.59;;;;;;;19.72;46.04;99957.92;;;;-57
2021/01/02 15:19:40;;;;;;;5.61;5.11;;;;;;;19.71;45.93;99956.45;;;;-52
2021/01/02 15:22:40;;;;;;;6.29;5.75;;;;;;;19.73;46.04;99961.00;;;;-47
2021/01/02 15:25:40;;;;;;;10.04;6.57;;;;;;;19.76;46.57;99959.47;;;;-53
2021/01/02 15:28:40;;;;;;;6.79;6.29;;;;;;;19.79;46.55;99959.35;;;;-52
2021/01/02 15:31:40;;;;;;;7.71;6.35;;;;;;;19.83;46.81;99964.47;;;;-54
2021/01/02 15:34:40;;;;;;;8.53;6.64;;;;;;;19.83;46.66;99966.27;;;;-55
2021/01/02 15:37:40;;;;;;;6.45;5.87;;;;;;;19.84;46.75;99966.67;;;;-50
2021/01/02 15:40:40;;;;;;;9.18;6.50;;;;;;;19.86;46.75;99967.08;;;;-56
2021/01/02 15:43:40;;;;;;;8.03;6.66;;;;;;;19.87;46.70;99965.68;;;;-55
2021/01/02 15:46:41;;;;;;;6.83;6.31;;;;;;;19.89;46.82;99965.77;;;;-50
2021/01/02 15:49:40;;;;;;;7.78;7.04;;;;;;;19.89;46.79;99964.38;;;;-49
2021/01/02 15:52:40;;;;;;;7.17;5.44;;;;;;;19.91;46.84;99962.98;;;;-49
2021/01/02 15:55:40;;;;;;;6.94;6.30;;;;;;;19.92;46.87;99960.45;;;;-56
2021/01/02 15:58:40;;;;;;;7.45;6.29;;;;;;;19.93;47.00;99958.09;;;;-54
2021/01/02 16:01:40;;;;;;;6.25;5.41;;;;;;;19.98;47.66;99957.74;;;;-55
2021/01/02 16:04:40;;;;;;;9.45;6.59;;;;;;;20.01;47.78;99954.58;;;;-51
2021/01/02 16:07:40;;;;;;;6.03;5.52;;;;;;;20.03;47.75;99954.81;;;;-52
2021/01/02 16:10:40;;;;;;;6.97;5.75;;;;;;;20.07;47.79;99951.88;;;;-51
2021/01/02 16:13:40;;;;;;;9.35;6.51;;;;;;;20.08;47.35;99951.53;;;;-52
2021/01/02 16:16:41;;;;;;;6.91;6.24;;;;;;;20.09;47.42;99945.92;;;;-53
2021/01/02 16:19:40;;;;;;;7.28;6.53;;;;;;;20.11;47.87;99941.04;;;;-53
2021/01/02 16:22:40;;;;;;;7.07;5.63;;;;;;;20.12;47.91;99941.83;;;;-55
2021/01/02 16:25:40;;;;;;;7.56;6.89;;;;;;;20.14;47.95;99941.08;;;;-52
2021/01/02 16:28:40;;;;;;;7.33;6.16;;;;;;;20.14;47.48;99938.23;;;;-58
2021/01/02 16:31:40;;;;;;;9.24;6.74;;;;;;;20.14;47.20;99935.97;;;;-54
2021/01/02 16:34:41;;;;;;;7.31;6.51;;;;;;;20.13;47.10;99936.22;;;;-58
2021/01/02 16:37:40;;;;;;;6.51;5.88;;;;;;;20.12;46.69;99932.41;;;;-54
2021/01/02 16:40:40;;;;;;;7.79;6.71;;;;;;;20.12;46.86;99935.82;;;;-62
2021/01/02 16:43:40;;;;;;;13.18;6.49;;;;;;;20.12;47.18;99935.82;;;;-62
2021/01/02 16:46:40;;;;;;;12.11;5.94;;;;;;;20.07;46.47;99932.91;;;;-53
2021/01/02 16:49:40;;;;;;;9.39;7.07;;;;;;;20.10;46.95;99929.88;;;;-45
2021/01/02 16:52:40;;;;;;;9.49;6.89;;;;;;;20.11;47.20;99932.58;;;;-50
2021/01/02 16:55:40;;;;;;;10.92;6.23;;;;;;;20.11;47.09;99931.19;;;;-50
2021/01/02 16:58:40;;;;;;;8.23;5.83;;;;;;;20.12;46.91;99932.95;;;;-44
2021/01/02 17:01:40;;;;;;;13.54;6.43;;;;;;;20.14;47.48;99931.89;;;;-47
2021/01/02 17:04:40;;;;;;;9.49;6.46;;;;;;;20.15;47.24;99931.48;;;;-48
2021/01/02 17:07:40;;;;;;;11.44;5.65;;;;;;;20.15;46.89;99927.24;;;;-48
2021/01/02 17:10:40;;;;;;;10.67;5.39;;;;;;;20.14;46.93;99930.67;;;;-56
2021/01/02 17:13:40;;;;;;;9.12;6.29;;;;;;;20.12;47.02;99924.01;;;;-59
2021/01/02 17:16:40;;;;;;;9.07;6.14;;;;;;;20.12;47.08;99923.28;;;;-57
2021/01/02 17:19:40;;;;;;;7.73;5.33;;;;;;;20.10;47.10;99926.88;;;;-51